sensor_id;sensor_type;location;lat;lon;timestamp;temperature;humidity
37782;DHT22;23621;50.878;4.584;2023-11-21T00:01:38;17.20;76.80
37782;DHT22;23621;50.878;4.584;2023-11-21T00:04:26;17.20;76.80
37782;DHT22;23621;50.878;4.584;2023-11-21T00:07:15;17.20;76.80
37782;DHT22;23621;50.878;4.584;2023-11-21T00:10:06;17.20;77.00
37782;DHT22;23621;50.878;4.584;2023-11-21T00:12:53;17.20;77.10
37782;DHT22;23621;50.878;4.584;2023-11-21T00:15:42;17.20;77.80
37782;DHT22;23621;50.878;4.584;2023-11-21T00:18:29;17.20;77.00
37782;DHT22;23621;50.878;4.584;2023-11-21T00:21:17;17.20;77.00
37782;DHT22;23621;50.878;4.584;2023-11-21T00:24:05;17.20;77.00
37782;DHT22;23621;50.878;4.584;2023-11-21T00:26:52;17.20;77.00
37782;DHT22;23621;50.878;4.584;2023-11-21T00:29:40;17.20;77.00
37782;DHT22;23621;50.878;4.584;2023-11-21T00:32:27;17.20;77.00
37782;DHT22;23621;50.878;4.584;2023-11-21T00:35:15;17.20;76.90
37782;DHT22;23621;50.878;4.584;2023-11-21T00:38:03;17.20;76.90
37782;DHT22;23621;50.878;4.584;2023-11-21T00:40:50;17.20;76.90
37782;DHT22;23621;50.878;4.584;2023-11-21T00:43:38;17.20;76.90
37782;DHT22;23621;50.878;4.584;2023-11-21T00:46:26;17.20;76.80
37782;DHT22;23621;50.878;4.584;2023-11-21T00:49:16;17.20;76.80
37782;DHT22;23621;50.878;4.584;2023-11-21T00:52:04;17.20;76.80
37782;DHT22;23621;50.878;4.584;2023-11-21T00:54:51;17.20;76.70
37782;DHT22;23621;50.878;4.584;2023-11-21T00:57:38;17.20;76.70
37782;DHT22;23621;50.878;4.584;2023-11-21T01:00:27;17.10;76.80
37782;DHT22;23621;50.878;4.584;2023-11-21T01:03:14;17.10;76.90
37782;DHT22;23621;50.878;4.584;2023-11-21T01:06:01;17.00;76.60
37782;DHT22;23621;50.878;4.584;2023-11-21T01:08:49;17.00;76.50
37782;DHT22;23621;50.878;4.584;2023-11-21T01:11:36;17.00;76.40
37782;DHT22;23621;50.878;4.584;2023-11-21T01:14:25;17.00;77.20
37782;DHT22;23621;50.878;4.584;2023-11-21T01:17:14;16.90;76.30
37782;DHT22;23621;50.878;4.584;2023-11-21T01:20:02;16.90;76.30
37782;DHT22;23621;50.878;4.584;2023-11-21T01:22:50;17.00;76.30
37782;DHT22;23621;50.878;4.584;2023-11-21T01:25:37;16.90;76.10
37782;DHT22;23621;50.878;4.584;2023-11-21T01:28:25;17.00;76.10
37782;DHT22;23621;50.878;4.584;2023-11-21T01:31:13;16.90;75.90
37782;DHT22;23621;50.878;4.584;2023-11-21T01:34:01;17.00;76.00
37782;DHT22;23621;50.878;4.584;2023-11-21T01:36:48;16.90;75.90
37782;DHT22;23621;50.878;4.584;2023-11-21T01:39:35;16.90;75.90
37782;DHT22;23621;50.878;4.584;2023-11-21T01:42:26;16.90;75.90
37782;DHT22;23621;50.878;4.584;2023-11-21T01:45:14;16.90;75.90
37782;DHT22;23621;50.878;4.584;2023-11-21T01:48:02;16.90;75.90
37782;DHT22;23621;50.878;4.584;2023-11-21T01:50:50;16.90;75.90
37782;DHT22;23621;50.878;4.584;2023-11-21T01:53:39;16.90;76.00
37782;DHT22;23621;50.878;4.584;2023-11-21T01:56:26;16.90;76.10
37782;DHT22;23621;50.878;4.584;2023-11-21T01:59:19;16.90;76.20
37782;DHT22;23621;50.878;4.584;2023-11-21T02:02:08;16.90;76.30
37782;DHT22;23621;50.878;4.584;2023-11-21T02:04:56;16.90;76.40
37782;DHT22;23621;50.878;4.584;2023-11-21T02:07:45;16.90;76.50
37782;DHT22;23621;50.878;4.584;2023-11-21T02:10:35;17.00;76.70
37782;DHT22;23621;50.878;4.584;2023-11-21T02:13:24;17.00;76.70
37782;DHT22;23621;50.878;4.584;2023-11-21T02:16:11;17.00;76.70
37782;DHT22;23621;50.878;4.584;2023-11-21T02:19:04;17.00;76.80
37782;DHT22;23621;50.878;4.584;2023-11-21T02:21:53;17.00;77.60
37782;DHT22;23621;50.878;4.584;2023-11-21T02:24:41;17.00;76.80
37782;DHT22;23621;50.878;4.584;2023-11-21T02:27:29;17.00;76.80
37782;DHT22;23621;50.878;4.584;2023-11-21T02:30:17;17.10;76.90
37782;DHT22;23621;50.878;4.584;2023-11-21T02:33:05;17.10;76.80
37782;DHT22;23621;50.878;4.584;2023-11-21T02:35:54;17.10;76.90
37782;DHT22;23621;50.878;4.584;2023-11-21T02:38:42;17.10;76.90
37782;DHT22;23621;50.878;4.584;2023-11-21T02:41:29;17.10;76.90
37782;DHT22;23621;50.878;4.584;2023-11-21T02:44:17;17.10;76.80
37782;DHT22;23621;50.878;4.584;2023-11-21T02:47:04;17.10;76.80
37782;DHT22;23621;50.878;4.584;2023-11-21T02:49:52;17.00;76.80
37782;DHT22;23621;50.878;4.584;2023-11-21T02:52:39;17.10;77.00
37782;DHT22;23621;50.878;4.584;2023-11-21T02:55:27;17.10;77.00
37782;DHT22;23621;50.878;4.584;2023-11-21T02:58:15;17.10;77.00
37782;DHT22;23621;50.878;4.584;2023-11-21T03:01:02;17.10;77.00
37782;DHT22;23621;50.878;4.584;2023-11-21T03:03:52;17.10;77.00
37782;DHT22;23621;50.878;4.584;2023-11-21T03:06:40;17.10;77.00
37782;DHT22;23621;50.878;4.584;2023-11-21T03:09:27;17.10;77.00
37782;DHT22;23621;50.878;4.584;2023-11-21T03:12:14;17.10;77.00
37782;DHT22;23621;50.878;4.584;2023-11-21T03:15:04;17.10;77.00
37782;DHT22;23621;50.878;4.584;2023-11-21T03:17:52;17.10;77.00
37782;DHT22;23621;50.878;4.584;2023-11-21T03:20:40;17.10;77.00
37782;DHT22;23621;50.878;4.584;2023-11-21T03:23:28;17.10;77.10
37782;DHT22;23621;50.878;4.584;2023-11-21T03:26:15;17.10;77.00
37782;DHT22;23621;50.878;4.584;2023-11-21T03:29:03;17.10;77.00
37782;DHT22;23621;50.878;4.584;2023-11-21T03:31:51;17.10;77.10
37782;DHT22;23621;50.878;4.584;2023-11-21T03:34:53;17.10;77.10
37782;DHT22;23621;50.878;4.584;2023-11-21T03:37:42;17.10;77.20
37782;DHT22;23621;50.878;4.584;2023-11-21T03:40:31;17.10;77.30
37782;DHT22;23621;50.878;4.584;2023-11-21T03:43:18;17.10;77.30
37782;DHT22;23621;50.878;4.584;2023-11-21T03:46:06;17.10;77.20
37782;DHT22;23621;50.878;4.584;2023-11-21T03:48:54;17.10;77.30
37782;DHT22;23621;50.878;4.584;2023-11-21T03:51:42;17.10;77.20
37782;DHT22;23621;50.878;4.584;2023-11-21T03:54:30;17.10;77.30
37782;DHT22;23621;50.878;4.584;2023-11-21T03:57:17;17.10;77.30
37782;DHT22;23621;50.878;4.584;2023-11-21T04:00:05;17.20;77.30
37782;DHT22;23621;50.878;4.584;2023-11-21T04:02:55;17.20;77.30
37782;DHT22;23621;50.878;4.584;2023-11-21T04:05:43;17.20;77.30
37782;DHT22;23621;50.878;4.584;2023-11-21T04:08:30;17.20;77.40
37782;DHT22;23621;50.878;4.584;2023-11-21T04:11:17;17.20;77.30
37782;DHT22;23621;50.878;4.584;2023-11-21T04:14:05;17.20;77.40
37782;DHT22;23621;50.878;4.584;2023-11-21T04:16:52;17.20;77.50
37782;DHT22;23621;50.878;4.584;2023-11-21T04:19:41;17.10;77.60
37782;DHT22;23621;50.878;4.584;2023-11-21T04:22:28;17.10;77.70
37782;DHT22;23621;50.878;4.584;2023-11-21T04:25:16;17.10;77.70
37782;DHT22;23621;50.878;4.584;2023-11-21T04:28:04;17.10;77.60
37782;DHT22;23621;50.878;4.584;2023-11-21T04:30:51;17.10;77.60
37782;DHT22;23621;50.878;4.584;2023-11-21T04:33:39;17.10;77.50
37782;DHT22;23621;50.878;4.584;2023-11-21T04:36:26;17.00;77.80
37782;DHT22;23621;50.878;4.584;2023-11-21T04:39:14;16.90;77.80
37782;DHT22;23621;50.878;4.584;2023-11-21T04:42:01;16.90;77.90
37782;DHT22;23621;50.878;4.584;2023-11-21T04:44:49;17.00;78.00
37782;DHT22;23621;50.878;4.584;2023-11-21T04:47:37;17.00;78.00
37782;DHT22;23621;50.878;4.584;2023-11-21T04:50:24;17.00;78.00
37782;DHT22;23621;50.878;4.584;2023-11-21T04:53:14;17.00;78.00
37782;DHT22;23621;50.878;4.584;2023-11-21T04:56:01;17.00;78.00
37782;DHT22;23621;50.878;4.584;2023-11-21T04:58:50;16.90;78.00
37782;DHT22;23621;50.878;4.584;2023-11-21T05:01:37;16.90;78.10
37782;DHT22;23621;50.878;4.584;2023-11-21T05:04:26;16.90;78.10
37782;DHT22;23621;50.878;4.584;2023-11-21T05:07:14;17.00;78.10
37782;DHT22;23621;50.878;4.584;2023-11-21T05:10:07;16.90;78.00
37782;DHT22;23621;50.878;4.584;2023-11-21T05:12:59;16.90;78.10
37782;DHT22;23621;50.878;4.584;2023-11-21T05:15:46;17.00;78.20
37782;DHT22;23621;50.878;4.584;2023-11-21T05:18:33;17.00;78.10
37782;DHT22;23621;50.878;4.584;2023-11-21T05:21:21;17.10;78.10
37782;DHT22;23621;50.878;4.584;2023-11-21T05:24:09;17.00;78.10
37782;DHT22;23621;50.878;4.584;2023-11-21T05:26:56;17.10;78.10
37782;DHT22;23621;50.878;4.584;2023-11-21T05:29:44;17.10;78.10
37782;DHT22;23621;50.878;4.584;2023-11-21T05:32:34;17.10;78.10
37782;DHT22;23621;50.878;4.584;2023-11-21T05:35:22;17.10;78.10
37782;DHT22;23621;50.878;4.584;2023-11-21T05:38:09;17.20;78.10
37782;DHT22;23621;50.878;4.584;2023-11-21T05:40:56;17.20;78.10
37782;DHT22;23621;50.878;4.584;2023-11-21T05:43:45;17.10;78.10
37782;DHT22;23621;50.878;4.584;2023-11-21T05:46:33;17.10;78.10
37782;DHT22;23621;50.878;4.584;2023-11-21T05:49:20;17.10;78.20
37782;DHT22;23621;50.878;4.584;2023-11-21T05:52:13;17.10;78.20
37782;DHT22;23621;50.878;4.584;2023-11-21T05:55:00;17.20;78.20
37782;DHT22;23621;50.878;4.584;2023-11-21T05:57:48;17.20;78.20
37782;DHT22;23621;50.878;4.584;2023-11-21T06:00:36;17.20;78.20
37782;DHT22;23621;50.878;4.584;2023-11-21T06:03:24;17.20;78.20
37782;DHT22;23621;50.878;4.584;2023-11-21T06:06:12;17.20;78.30
37782;DHT22;23621;50.878;4.584;2023-11-21T06:09:00;17.20;78.20
37782;DHT22;23621;50.878;4.584;2023-11-21T06:11:47;17.20;78.20
37782;DHT22;23621;50.878;4.584;2023-11-21T06:14:34;17.20;78.90
37782;DHT22;23621;50.878;4.584;2023-11-21T06:17:22;17.30;78.30
37782;DHT22;23621;50.878;4.584;2023-11-21T06:20:12;17.30;78.30
37782;DHT22;23621;50.878;4.584;2023-11-21T06:23:02;17.30;78.30
37782;DHT22;23621;50.878;4.584;2023-11-21T06:25:51;17.30;78.20
37782;DHT22;23621;50.878;4.584;2023-11-21T06:28:38;17.30;78.20
37782;DHT22;23621;50.878;4.584;2023-11-21T06:31:26;17.30;78.30
37782;DHT22;23621;50.878;4.584;2023-11-21T06:34:13;17.30;78.30
37782;DHT22;23621;50.878;4.584;2023-11-21T06:37:01;17.30;78.30
37782;DHT22;23621;50.878;4.584;2023-11-21T06:39:48;17.40;78.40
37782;DHT22;23621;50.878;4.584;2023-11-21T06:42:36;17.40;79.10
37782;DHT22;23621;50.878;4.584;2023-11-21T06:45:25;17.40;79.10
37782;DHT22;23621;50.878;4.584;2023-11-21T06:48:13;17.40;78.40
37782;DHT22;23621;50.878;4.584;2023-11-21T06:51:01;17.40;78.30
37782;DHT22;23621;50.878;4.584;2023-11-21T06:53:51;17.40;78.40
37782;DHT22;23621;50.878;4.584;2023-11-21T06:56:38;17.40;78.30
37782;DHT22;23621;50.878;4.584;2023-11-21T06:59:28;17.40;78.40
37782;DHT22;23621;50.878;4.584;2023-11-21T07:02:15;17.40;78.40
37782;DHT22;23621;50.878;4.584;2023-11-21T07:05:05;17.30;78.40
37782;DHT22;23621;50.878;4.584;2023-11-21T07:07:53;17.30;78.40
37782;DHT22;23621;50.878;4.584;2023-11-21T07:10:41;17.30;78.50
37782;DHT22;23621;50.878;4.584;2023-11-21T07:13:29;17.40;78.50
37782;DHT22;23621;50.878;4.584;2023-11-21T07:16:17;17.40;78.50
37782;DHT22;23621;50.878;4.584;2023-11-21T07:19:09;17.40;78.50
37782;DHT22;23621;50.878;4.584;2023-11-21T07:21:56;17.40;78.50
37782;DHT22;23621;50.878;4.584;2023-11-21T07:24:43;17.40;78.50
37782;DHT22;23621;50.878;4.584;2023-11-21T07:27:31;17.40;78.50
37782;DHT22;23621;50.878;4.584;2023-11-21T07:30:21;17.40;78.60
37782;DHT22;23621;50.878;4.584;2023-11-21T07:33:10;17.40;78.60
37782;DHT22;23621;50.878;4.584;2023-11-21T07:35:57;17.40;78.60
37782;DHT22;23621;50.878;4.584;2023-11-21T07:38:44;17.40;78.60
37782;DHT22;23621;50.878;4.584;2023-11-21T07:41:32;17.50;78.70
37782;DHT22;23621;50.878;4.584;2023-11-21T07:44:20;17.50;78.70
37782;DHT22;23621;50.878;4.584;2023-11-21T07:47:07;17.50;78.70
37782;DHT22;23621;50.878;4.584;2023-11-21T07:49:56;17.50;78.70
37782;DHT22;23621;50.878;4.584;2023-11-21T07:52:43;17.50;78.80
37782;DHT22;23621;50.878;4.584;2023-11-21T07:55:31;17.50;78.80
37782;DHT22;23621;50.878;4.584;2023-11-21T07:58:19;17.50;78.80
37782;DHT22;23621;50.878;4.584;2023-11-21T08:01:06;17.60;79.00
37782;DHT22;23621;50.878;4.584;2023-11-21T08:03:55;17.60;78.90
37782;DHT22;23621;50.878;4.584;2023-11-21T08:06:46;17.60;79.00
37782;DHT22;23621;50.878;4.584;2023-11-21T08:09:33;17.60;78.90
37782;DHT22;23621;50.878;4.584;2023-11-21T08:12:21;17.70;79.00
37782;DHT22;23621;50.878;4.584;2023-11-21T08:15:09;17.60;78.90
37782;DHT22;23621;50.878;4.584;2023-11-21T08:17:58;17.60;79.00
37782;DHT22;23621;50.878;4.584;2023-11-21T08:20:46;17.70;79.00
37782;DHT22;23621;50.878;4.584;2023-11-21T08:23:34;17.70;79.00
37782;DHT22;23621;50.878;4.584;2023-11-21T08:26:22;17.60;79.10
37782;DHT22;23621;50.878;4.584;2023-11-21T08:29:09;17.60;79.20
37782;DHT22;23621;50.878;4.584;2023-11-21T08:31:57;17.60;79.10
37782;DHT22;23621;50.878;4.584;2023-11-21T08:34:45;17.60;79.10
37782;DHT22;23621;50.878;4.584;2023-11-21T08:37:34;17.60;79.20
37782;DHT22;23621;50.878;4.584;2023-11-21T08:40:24;17.60;79.20
37782;DHT22;23621;50.878;4.584;2023-11-21T08:43:12;17.70;79.30
37782;DHT22;23621;50.878;4.584;2023-11-21T08:46:01;17.70;79.30
37782;DHT22;23621;50.878;4.584;2023-11-21T08:48:48;17.70;79.30
37782;DHT22;23621;50.878;4.584;2023-11-21T08:51:36;17.70;79.20
37782;DHT22;23621;50.878;4.584;2023-11-21T08:54:23;17.70;79.30
37782;DHT22;23621;50.878;4.584;2023-11-21T08:57:11;17.70;79.40
37782;DHT22;23621;50.878;4.584;2023-11-21T08:59:58;17.70;79.50
37782;DHT22;23621;50.878;4.584;2023-11-21T09:02:45;17.70;79.40
37782;DHT22;23621;50.878;4.584;2023-11-21T09:05:37;17.70;79.40
37782;DHT22;23621;50.878;4.584;2023-11-21T09:08:26;17.70;79.50
37782;DHT22;23621;50.878;4.584;2023-11-21T09:11:15;17.60;79.50
37782;DHT22;23621;50.878;4.584;2023-11-21T09:14:03;17.60;79.70
37782;DHT22;23621;50.878;4.584;2023-11-21T09:16:50;17.60;79.80
37782;DHT22;23621;50.878;4.584;2023-11-21T09:19:38;17.70;79.90
37782;DHT22;23621;50.878;4.584;2023-11-21T09:22:25;17.70;79.90
37782;DHT22;23621;50.878;4.584;2023-11-21T09:25:14;17.70;79.80
37782;DHT22;23621;50.878;4.584;2023-11-21T09:28:02;17.80;79.80
37782;DHT22;23621;50.878;4.584;2023-11-21T09:30:52;17.80;79.90
37782;DHT22;23621;50.878;4.584;2023-11-21T09:33:39;17.80;79.80
37782;DHT22;23621;50.878;4.584;2023-11-21T09:36:27;17.90;79.80
37782;DHT22;23621;50.878;4.584;2023-11-21T09:39:17;17.90;79.80
37782;DHT22;23621;50.878;4.584;2023-11-21T09:42:10;17.90;79.80
37782;DHT22;23621;50.878;4.584;2023-11-21T09:45:04;17.90;79.80
37782;DHT22;23621;50.878;4.584;2023-11-21T09:47:53;17.90;79.80
37782;DHT22;23621;50.878;4.584;2023-11-21T09:50:43;17.90;79.70
37782;DHT22;23621;50.878;4.584;2023-11-21T09:53:32;18.00;79.80
37782;DHT22;23621;50.878;4.584;2023-11-21T09:56:21;18.00;79.90
37782;DHT22;23621;50.878;4.584;2023-11-21T09:59:14;18.00;80.20
37782;DHT22;23621;50.878;4.584;2023-11-21T10:02:02;18.00;80.30
37782;DHT22;23621;50.878;4.584;2023-11-21T10:04:50;18.00;80.30
37782;DHT22;23621;50.878;4.584;2023-11-21T10:07:39;17.90;80.20
37782;DHT22;23621;50.878;4.584;2023-11-21T10:10:29;17.90;80.40
37782;DHT22;23621;50.878;4.584;2023-11-21T10:13:18;17.90;80.30
37782;DHT22;23621;50.878;4.584;2023-11-21T10:16:07;17.90;80.30
37782;DHT22;23621;50.878;4.584;2023-11-21T10:18:59;17.80;80.50
37782;DHT22;23621;50.878;4.584;2023-11-21T10:21:58;17.80;80.50
37782;DHT22;23621;50.878;4.584;2023-11-21T10:24:47;17.70;80.60
37782;DHT22;23621;50.878;4.584;2023-11-21T10:27:41;17.80;80.70
37782;DHT22;23621;50.878;4.584;2023-11-21T10:30:33;17.70;80.70
37782;DHT22;23621;50.878;4.584;2023-11-21T10:33:27;17.80;80.90
37782;DHT22;23621;50.878;4.584;2023-11-21T10:36:29;17.90;80.90
37782;DHT22;23621;50.878;4.584;2023-11-21T10:39:18;18.00;80.80
37782;DHT22;23621;50.878;4.584;2023-11-21T10:42:08;18.00;80.70
37782;DHT22;23621;50.878;4.584;2023-11-21T10:44:57;18.00;81.40
37782;DHT22;23621;50.878;4.584;2023-11-21T10:47:44;18.00;80.60
37782;DHT22;23621;50.878;4.584;2023-11-21T10:50:33;18.00;80.40
37782;DHT22;23621;50.878;4.584;2023-11-21T10:53:21;18.00;80.50
37782;DHT22;23621;50.878;4.584;2023-11-21T10:56:09;18.00;80.30
37782;DHT22;23621;50.878;4.584;2023-11-21T10:59:04;18.00;80.50
37782;DHT22;23621;50.878;4.584;2023-11-21T11:01:54;18.00;80.40
37782;DHT22;23621;50.878;4.584;2023-11-21T11:04:44;18.10;80.50
37782;DHT22;23621;50.878;4.584;2023-11-21T11:07:33;18.10;80.50
37782;DHT22;23621;50.878;4.584;2023-11-21T11:10:22;18.10;80.40
37782;DHT22;23621;50.878;4.584;2023-11-21T11:13:13;18.10;80.30
37782;DHT22;23621;50.878;4.584;2023-11-21T11:16:02;18.20;80.20
37782;DHT22;23621;50.878;4.584;2023-11-21T11:18:50;18.30;80.20
37782;DHT22;23621;50.878;4.584;2023-11-21T11:31:01;18.30;80.10
37782;DHT22;23621;50.878;4.584;2023-11-21T11:34:23;18.30;80.00
37782;DHT22;23621;50.878;4.584;2023-11-21T11:37:13;18.30;79.90
37782;DHT22;23621;50.878;4.584;2023-11-21T11:40:06;18.30;80.20
37782;DHT22;23621;50.878;4.584;2023-11-21T11:43:01;18.30;80.20
37782;DHT22;23621;50.878;4.584;2023-11-21T11:45:52;18.20;80.50
37782;DHT22;23621;50.878;4.584;2023-11-21T11:48:42;18.30;80.50
37782;DHT22;23621;50.878;4.584;2023-11-21T11:51:32;18.40;80.60
37782;DHT22;23621;50.878;4.584;2023-11-21T11:54:35;18.40;80.40
37782;DHT22;23621;50.878;4.584;2023-11-21T11:57:25;18.40;80.40
37782;DHT22;23621;50.878;4.584;2023-11-21T12:00:17;18.50;80.60
37782;DHT22;23621;50.878;4.584;2023-11-21T12:03:09;18.50;80.60
37782;DHT22;23621;50.878;4.584;2023-11-21T12:05:57;18.50;80.60
37782;DHT22;23621;50.878;4.584;2023-11-21T12:08:45;18.60;80.60
37782;DHT22;23621;50.878;4.584;2023-11-21T12:11:33;18.60;80.40
37782;DHT22;23621;50.878;4.584;2023-11-21T12:14:24;18.60;80.30
37782;DHT22;23621;50.878;4.584;2023-11-21T12:17:11;18.60;80.20
37782;DHT22;23621;50.878;4.584;2023-11-21T12:20:03;18.60;80.20
37782;DHT22;23621;50.878;4.584;2023-11-21T12:23:01;18.60;80.10
37782;DHT22;23621;50.878;4.584;2023-11-21T12:25:48;18.70;80.10
37782;DHT22;23621;50.878;4.584;2023-11-21T12:28:36;18.60;80.00
37782;DHT22;23621;50.878;4.584;2023-11-21T12:31:23;18.70;80.00
37782;DHT22;23621;50.878;4.584;2023-11-21T12:34:11;18.70;80.00
37782;DHT22;23621;50.878;4.584;2023-11-21T12:37:00;18.70;80.10
37782;DHT22;23621;50.878;4.584;2023-11-21T12:39:48;18.70;80.00
37782;DHT22;23621;50.878;4.584;2023-11-21T12:42:35;18.70;80.00
37782;DHT22;23621;50.878;4.584;2023-11-21T12:45:25;18.80;80.10
37782;DHT22;23621;50.878;4.584;2023-11-21T12:48:13;18.80;80.20
37782;DHT22;23621;50.878;4.584;2023-11-21T12:51:00;18.80;80.00
37782;DHT22;23621;50.878;4.584;2023-11-21T12:53:50;18.90;80.00
37782;DHT22;23621;50.878;4.584;2023-11-21T12:56:45;18.90;79.90
37782;DHT22;23621;50.878;4.584;2023-11-21T12:59:38;18.90;79.80
37782;DHT22;23621;50.878;4.584;2023-11-21T13:02:26;18.90;79.60
37782;DHT22;23621;50.878;4.584;2023-11-21T13:05:30;18.90;79.50
37782;DHT22;23621;50.878;4.584;2023-11-21T13:08:18;18.90;79.40
37782;DHT22;23621;50.878;4.584;2023-11-21T13:11:08;18.80;79.20
37782;DHT22;23621;50.878;4.584;2023-11-21T13:13:55;18.80;79.30
37782;DHT22;23621;50.878;4.584;2023-11-21T13:16:43;18.70;79.30
37782;DHT22;23621;50.878;4.584;2023-11-21T13:19:33;18.80;79.40
37782;DHT22;23621;50.878;4.584;2023-11-21T13:22:21;18.80;79.40
37782;DHT22;23621;50.878;4.584;2023-11-21T13:25:08;18.80;79.40
37782;DHT22;23621;50.878;4.584;2023-11-21T13:27:56;18.70;79.30
37782;DHT22;23621;50.878;4.584;2023-11-21T13:30:44;18.70;79.30
37782;DHT22;23621;50.878;4.584;2023-11-21T13:33:32;18.70;79.40
37782;DHT22;23621;50.878;4.584;2023-11-21T13:36:24;18.70;79.50
37782;DHT22;23621;50.878;4.584;2023-11-21T13:39:12;18.70;79.60
37782;DHT22;23621;50.878;4.584;2023-11-21T13:42:03;18.70;79.60
37782;DHT22;23621;50.878;4.584;2023-11-21T13:44:56;18.80;79.70
37782;DHT22;23621;50.878;4.584;2023-11-21T13:47:44;18.80;79.60
37782;DHT22;23621;50.878;4.584;2023-11-21T13:50:32;18.70;79.50
37782;DHT22;23621;50.878;4.584;2023-11-21T13:53:21;18.70;79.60
37782;DHT22;23621;50.878;4.584;2023-11-21T13:56:11;18.70;79.70
37782;DHT22;23621;50.878;4.584;2023-11-21T13:59:00;18.70;79.80
37782;DHT22;23621;50.878;4.584;2023-11-21T14:01:57;18.70;79.80
37782;DHT22;23621;50.878;4.584;2023-11-21T14:04:59;18.70;79.80
37782;DHT22;23621;50.878;4.584;2023-11-21T14:07:50;18.70;79.80
37782;DHT22;23621;50.878;4.584;2023-11-21T14:10:37;18.70;79.80
37782;DHT22;23621;50.878;4.584;2023-11-21T14:13:30;18.70;79.80
37782;DHT22;23621;50.878;4.584;2023-11-21T14:16:18;18.70;79.80
37782;DHT22;23621;50.878;4.584;2023-11-21T14:19:05;18.70;79.60
37782;DHT22;23621;50.878;4.584;2023-11-21T14:22:03;18.80;79.60
37782;DHT22;23621;50.878;4.584;2023-11-21T14:24:50;18.80;79.60
37782;DHT22;23621;50.878;4.584;2023-11-21T14:27:39;18.80;79.60
37782;DHT22;23621;50.878;4.584;2023-11-21T14:30:26;18.70;79.50
37782;DHT22;23621;50.878;4.584;2023-11-21T14:33:15;18.80;79.60
37782;DHT22;23621;50.878;4.584;2023-11-21T14:36:03;18.80;79.50
37782;DHT22;23621;50.878;4.584;2023-11-21T14:38:51;18.80;79.60
37782;DHT22;23621;50.878;4.584;2023-11-21T14:41:38;18.80;79.50
37782;DHT22;23621;50.878;4.584;2023-11-21T14:44:26;18.80;79.50
37782;DHT22;23621;50.878;4.584;2023-11-21T14:47:17;18.80;79.40
37782;DHT22;23621;50.878;4.584;2023-11-21T14:50:12;18.80;79.40
37782;DHT22;23621;50.878;4.584;2023-11-21T14:53:18;18.80;79.30
37782;DHT22;23621;50.878;4.584;2023-11-21T14:56:26;18.80;79.40
37782;DHT22;23621;50.878;4.584;2023-11-21T14:59:17;18.70;79.30
37782;DHT22;23621;50.878;4.584;2023-11-21T15:02:05;18.70;79.40
37782;DHT22;23621;50.878;4.584;2023-11-21T15:05:01;18.70;79.50
37782;DHT22;23621;50.878;4.584;2023-11-21T15:07:50;18.60;79.50
37782;DHT22;23621;50.878;4.584;2023-11-21T15:10:40;18.60;79.50
37782;DHT22;23621;50.878;4.584;2023-11-21T15:13:35;18.50;79.50
37782;DHT22;23621;50.878;4.584;2023-11-21T15:16:22;18.50;79.70
37782;DHT22;23621;50.878;4.584;2023-11-21T15:19:09;18.50;79.70
37782;DHT22;23621;50.878;4.584;2023-11-21T15:21:59;18.50;79.80
37782;DHT22;23621;50.878;4.584;2023-11-21T15:24:46;18.40;79.80
37782;DHT22;23621;50.878;4.584;2023-11-21T15:27:34;18.40;79.80
37782;DHT22;23621;50.878;4.584;2023-11-21T15:30:21;18.40;79.90
37782;DHT22;23621;50.878;4.584;2023-11-21T15:33:12;18.40;79.90
37782;DHT22;23621;50.878;4.584;2023-11-21T15:35:59;18.40;79.80
37782;DHT22;23621;50.878;4.584;2023-11-21T15:38:46;18.30;79.90
37782;DHT22;23621;50.878;4.584;2023-11-21T15:41:34;18.30;79.90
37782;DHT22;23621;50.878;4.584;2023-11-21T15:44:21;18.30;79.90
37782;DHT22;23621;50.878;4.584;2023-11-21T15:47:09;18.30;80.00
37782;DHT22;23621;50.878;4.584;2023-11-21T15:49:57;18.30;80.00
37782;DHT22;23621;50.878;4.584;2023-11-21T15:52:45;18.20;79.90
37782;DHT22;23621;50.878;4.584;2023-11-21T15:55:44;18.20;80.00
37782;DHT22;23621;50.878;4.584;2023-11-21T15:58:31;18.20;79.90
37782;DHT22;23621;50.878;4.584;2023-11-21T16:01:19;18.20;80.00
37782;DHT22;23621;50.878;4.584;2023-11-21T16:04:10;18.20;80.00
37782;DHT22;23621;50.878;4.584;2023-11-21T16:06:58;18.20;80.00
37782;DHT22;23621;50.878;4.584;2023-11-21T16:09:48;18.20;80.00
37782;DHT22;23621;50.878;4.584;2023-11-21T16:12:37;18.20;79.80
37782;DHT22;23621;50.878;4.584;2023-11-21T16:15:27;18.10;79.70
37782;DHT22;23621;50.878;4.584;2023-11-21T16:18:15;18.10;79.80
37782;DHT22;23621;50.878;4.584;2023-11-21T16:21:03;18.00;79.70
37782;DHT22;23621;50.878;4.584;2023-11-21T16:23:50;18.00;79.80
37782;DHT22;23621;50.878;4.584;2023-11-21T16:26:42;18.00;79.90
37782;DHT22;23621;50.878;4.584;2023-11-21T16:29:30;18.00;79.90
37782;DHT22;23621;50.878;4.584;2023-11-21T16:32:20;18.00;79.80
37782;DHT22;23621;50.878;4.584;2023-11-21T16:35:08;18.00;79.70
37782;DHT22;23621;50.878;4.584;2023-11-21T16:37:57;18.00;79.60
37782;DHT22;23621;50.878;4.584;2023-11-21T16:40:44;18.00;79.60
37782;DHT22;23621;50.878;4.584;2023-11-21T16:43:33;18.00;79.70
37782;DHT22;23621;50.878;4.584;2023-11-21T16:46:20;18.00;79.60
37782;DHT22;23621;50.878;4.584;2023-11-21T16:49:07;18.00;79.60
37782;DHT22;23621;50.878;4.584;2023-11-21T16:51:55;18.00;79.50
37782;DHT22;23621;50.878;4.584;2023-11-21T16:54:43;18.00;79.50
37782;DHT22;23621;50.878;4.584;2023-11-21T16:57:30;18.00;79.40
37782;DHT22;23621;50.878;4.584;2023-11-21T17:00:20;18.00;79.40
37782;DHT22;23621;50.878;4.584;2023-11-21T17:03:10;18.10;79.50
37782;DHT22;23621;50.878;4.584;2023-11-21T17:05:58;18.10;79.30
37782;DHT22;23621;50.878;4.584;2023-11-21T17:08:45;18.10;79.20
37782;DHT22;23621;50.878;4.584;2023-11-21T17:11:33;18.10;79.20
37782;DHT22;23621;50.878;4.584;2023-11-21T17:14:20;18.10;79.10
37782;DHT22;23621;50.878;4.584;2023-11-21T17:17:08;18.10;79.00
37782;DHT22;23621;50.878;4.584;2023-11-21T17:19:57;18.10;79.00
37782;DHT22;23621;50.878;4.584;2023-11-21T17:22:47;18.10;79.00
37782;DHT22;23621;50.878;4.584;2023-11-21T17:25:39;18.10;79.60
37782;DHT22;23621;50.878;4.584;2023-11-21T17:28:26;18.10;78.90
37782;DHT22;23621;50.878;4.584;2023-11-21T17:31:14;18.10;78.70
37782;DHT22;23621;50.878;4.584;2023-11-21T17:34:01;18.10;78.70
37782;DHT22;23621;50.878;4.584;2023-11-21T17:36:48;18.10;78.80
37782;DHT22;23621;50.878;4.584;2023-11-21T17:39:36;18.10;78.70
37782;DHT22;23621;50.878;4.584;2023-11-21T17:42:23;18.10;78.60
37782;DHT22;23621;50.878;4.584;2023-11-21T17:45:11;18.10;78.60
37782;DHT22;23621;50.878;4.584;2023-11-21T17:47:58;18.10;78.60
37782;DHT22;23621;50.878;4.584;2023-11-21T17:50:47;18.10;78.50
37782;DHT22;23621;50.878;4.584;2023-11-21T17:53:34;18.10;78.50
37782;DHT22;23621;50.878;4.584;2023-11-21T17:56:22;18.10;78.40